createdAt,value
2019-03-24T00:00:11.938Z,29.53
2019-03-24T00:02:40.923Z,28.60
2019-03-24T00:05:09.930Z,23.27
2019-03-24T00:07:39.030Z,25.97
2019-03-24T00:10:08.125Z,24.30
2019-03-24T00:12:37.016Z,25.50
2019-03-24T00:15:08.569Z,19.40
2019-03-24T00:17:37.439Z,26.47
2019-03-24T00:20:10.432Z,18.87
2019-03-24T00:22:39.588Z,22.73
2019-03-24T00:25:08.847Z,19.40
2019-03-24T00:27:37.689Z,22.53
2019-03-24T00:30:08.480Z,28.80
2019-03-24T00:32:37.273Z,26.37
2019-03-24T00:35:07.898Z,24.03
2019-03-24T00:37:36.696Z,26.77
2019-03-24T00:40:08.957Z,25.53
2019-03-24T00:42:37.777Z,31.37
2019-03-24T00:45:08.451Z,30.60
2019-03-24T00:47:37.246Z,26.60
2019-03-24T00:50:07.169Z,27.83
2019-03-24T00:52:35.965Z,22.93
2019-03-24T00:55:08.866Z,26.93
2019-03-24T00:57:37.916Z,27.57
2019-03-24T01:00:09.021Z,22.47
2019-03-24T01:02:37.985Z,28.13
2019-03-24T01:05:08.416Z,26.17
2019-03-24T01:07:37.474Z,26.10
2019-03-24T01:10:09.997Z,26.13
2019-03-24T01:12:38.861Z,21.50
2019-03-24T01:15:08.603Z,26.97
2019-03-24T01:17:38.595Z,23.13
2019-03-24T01:20:09.138Z,28.30
2019-03-24T01:22:38.011Z,27.43
2019-03-24T01:25:07.447Z,24.80
2019-03-24T01:27:36.309Z,26.90
2019-03-24T01:30:08.280Z,29.70
2019-03-24T01:32:37.197Z,26.10
2019-03-24T01:35:07.108Z,23.13
2019-03-24T01:37:35.874Z,29.93
2019-03-24T01:40:07.222Z,23.87
2019-03-24T01:42:36.083Z,21.67
2019-03-24T01:45:09.613Z,24.82
2019-03-24T01:47:40.330Z,28.33
2019-03-24T01:50:09.474Z,28.70
2019-03-24T01:52:38.348Z,30.15
2019-03-24T01:55:08.639Z,27.52
2019-03-24T01:57:37.584Z,29.98
2019-03-24T02:00:07.908Z,24.05
2019-03-24T02:02:36.560Z,27.95
2019-03-24T02:05:08.562Z,29.07
2019-03-24T02:07:37.448Z,27.30
2019-03-24T02:10:07.962Z,28.75
2019-03-24T02:12:36.870Z,25.95
2019-03-24T02:15:08.020Z,27.10
2019-03-24T02:17:36.910Z,32.13
2019-03-24T02:20:07.647Z,26.02
2019-03-24T02:22:36.389Z,26.70
2019-03-24T02:25:07.230Z,27.00
2019-03-24T02:27:36.132Z,30.88
2019-03-24T02:30:07.313Z,32.15
2019-03-24T02:32:36.174Z,27.65
2019-03-24T02:35:06.551Z,25.70
2019-03-24T02:37:35.455Z,25.88
2019-03-24T02:40:08.690Z,23.52
2019-03-24T02:42:37.470Z,29.15
2019-03-24T02:45:07.485Z,28.87
2019-03-24T02:47:36.289Z,26.02
2019-03-24T02:50:06.215Z,29.07
2019-03-24T02:52:35.077Z,35.33
2019-03-24T02:55:06.058Z,25.80
2019-03-24T02:57:34.824Z,25.27
2019-03-24T03:00:05.706Z,30.17
2019-03-24T03:02:34.451Z,24.07
2019-03-24T03:05:03.518Z,30.27
2019-03-24T03:07:32.333Z,23.87
2019-03-24T03:10:01.233Z,32.25
2019-03-24T03:12:30.110Z,21.45
2019-03-24T03:14:59.011Z,22.55
2019-03-24T03:17:28.002Z,25.05
2019-03-24T03:19:57.024Z,25.17
2019-03-24T03:22:25.895Z,31.48
2019-03-24T03:24:54.687Z,33.35
2019-03-24T03:27:23.497Z,23.67
2019-03-24T03:29:52.401Z,28.75
2019-03-24T03:32:21.252Z,23.50
2019-03-24T03:34:50.229Z,26.17
2019-03-24T03:37:19.169Z,29.77
2019-03-24T03:39:47.972Z,22.30
2019-03-24T03:42:16.846Z,34.58
2019-03-24T03:44:45.756Z,35.03
2019-03-24T03:47:14.666Z,29.20
2019-03-24T03:49:43.520Z,29.63
2019-03-24T03:52:12.388Z,33.13
2019-03-24T03:54:41.282Z,28.50
2019-03-24T03:57:10.191Z,29.77
2019-03-24T03:59:39.165Z,26.73
2019-03-24T04:02:08.189Z,29.20
2019-03-24T04:04:36.953Z,28.45
2019-03-24T04:07:05.971Z,22.48
2019-03-24T04:09:34.808Z,26.85
2019-03-24T04:12:03.757Z,31.68
2019-03-24T04:14:34.264Z,31.90
2019-03-24T04:17:07.713Z,25.80
2019-03-24T04:19:33.657Z,25.00
2019-03-24T04:22:02.446Z,26.77
2019-03-24T04:24:31.284Z,24.63
2019-03-24T04:27:00.249Z,25.92
2019-03-24T04:29:29.040Z,26.57
2019-03-24T04:31:57.932Z,23.00
2019-03-24T04:34:26.851Z,28.80
2019-03-24T04:36:55.754Z,23.80
2019-03-24T04:39:24.607Z,31.87
2019-03-24T04:41:53.500Z,27.42
2019-03-24T04:44:22.393Z,29.52
2019-03-24T04:46:51.279Z,28.87
2019-03-24T04:49:20.180Z,27.17
2019-03-24T04:51:49.094Z,26.27
2019-03-24T04:54:19.679Z,29.70
2019-03-24T04:56:48.516Z,30.15
2019-03-24T04:59:17.390Z,30.27
2019-03-24T05:01:46.388Z,26.57
2019-03-24T05:04:15.396Z,31.82
2019-03-24T05:06:44.501Z,29.57
2019-03-24T05:09:15.024Z,33.75
2019-03-24T05:11:43.887Z,27.55
2019-03-24T05:14:12.800Z,32.38
2019-03-24T05:16:41.700Z,29.60
2019-03-24T05:19:10.594Z,32.08
2019-03-24T05:21:39.484Z,29.15
2019-03-24T05:24:08.375Z,37.38
2019-03-24T05:26:37.247Z,37.30
2019-03-24T05:29:06.200Z,33.15
2019-03-24T05:31:35.003Z,28.05
2019-03-24T05:34:03.943Z,30.95
2019-03-24T05:36:32.834Z,35.88
2019-03-24T05:39:01.700Z,32.28
2019-03-24T05:41:30.618Z,39.25
2019-03-24T05:43:59.717Z,31.33
2019-03-24T05:46:28.409Z,26.02
2019-03-24T05:48:57.123Z,36.35
2019-03-24T05:51:25.982Z,25.68
2019-03-24T05:53:54.713Z,38.53
2019-03-24T05:56:23.768Z,37.15
2019-03-24T05:58:53.602Z,37.83
2019-03-24T06:01:22.477Z,30.45
2019-03-24T06:03:53.076Z,36.08
2019-03-24T06:06:21.994Z,35.83
2019-03-24T06:08:50.888Z,33.80
2019-03-24T06:11:19.780Z,40.67
2019-03-24T06:13:48.541Z,37.88
2019-03-24T06:16:17.434Z,34.53
2019-03-24T06:18:46.323Z,36.10
2019-03-24T06:21:15.215Z,37.45
2019-03-24T06:23:44.035Z,36.60
2019-03-24T06:26:12.771Z,39.20
2019-03-24T06:28:41.692Z,28.30
2019-03-24T06:31:10.711Z,27.43
2019-03-24T06:33:39.606Z,36.67
2019-03-24T06:36:08.449Z,29.70
2019-03-24T06:38:39.140Z,33.77
2019-03-24T06:41:07.996Z,25.53
2019-03-24T06:43:36.821Z,38.23
2019-03-24T06:46:06.114Z,35.00
2019-03-24T06:48:34.847Z,35.23
2019-03-24T06:51:03.697Z,33.40
2019-03-24T06:53:32.539Z,27.10
2019-03-24T06:56:01.471Z,28.57
2019-03-24T06:58:30.337Z,30.47
2019-03-24T07:00:59.263Z,26.50
2019-03-24T07:03:28.150Z,27.17
2019-03-24T07:05:57.114Z,26.63
2019-03-24T07:08:25.901Z,28.13
2019-03-24T07:10:54.796Z,28.73
2019-03-24T07:13:23.714Z,32.23
2019-03-24T07:15:53.504Z,29.77
2019-03-24T07:18:22.390Z,29.63
2019-03-24T07:20:51.288Z,28.23
2019-03-24T07:23:20.104Z,24.87
2019-03-24T07:25:48.876Z,32.20
2019-03-24T07:28:17.888Z,29.53
2019-03-24T07:30:46.759Z,33.57
2019-03-24T07:33:26.870Z,30.23
2019-03-24T07:36:02.890Z,34.13
2019-03-24T07:38:31.962Z,28.10
2019-03-24T07:41:00.753Z,30.83
2019-03-24T07:43:29.670Z,32.80
2019-03-24T07:45:59.532Z,26.27
2019-03-24T07:48:28.381Z,29.70
2019-03-24T07:50:57.272Z,31.20
2019-03-24T07:53:26.027Z,29.87
2019-03-24T07:55:54.921Z,33.00
2019-03-24T07:58:23.812Z,28.17
2019-03-24T08:00:53.087Z,29.80
2019-03-24T08:03:21.930Z,28.90
2019-03-24T08:05:51.027Z,27.60
2019-03-24T08:08:19.924Z,31.57
2019-03-24T08:10:48.779Z,29.73
2019-03-24T08:13:17.704Z,32.93
2019-03-24T08:15:46.596Z,35.97
2019-03-24T08:18:15.491Z,27.83
2019-03-24T08:20:44.379Z,32.13
2019-03-24T08:23:13.270Z,27.30
2019-03-24T08:25:42.030Z,35.97
2019-03-24T08:28:10.911Z,30.70
2019-03-24T08:30:40.135Z,30.80
2019-03-24T08:33:09.044Z,29.43
2019-03-24T08:35:37.826Z,31.23
2019-03-24T08:38:07.033Z,31.90
2019-03-24T08:40:36.224Z,32.80
2019-03-24T08:43:05.206Z,27.97
2019-03-24T08:45:33.968Z,29.83
2019-03-24T08:48:02.846Z,30.03
2019-03-24T08:50:31.773Z,31.43
2019-03-24T08:53:00.665Z,31.43
2019-03-24T08:55:29.558Z,29.53
2019-03-24T08:57:59.910Z,29.23
2019-03-24T09:00:30.935Z,30.80
2019-03-24T09:02:59.329Z,31.60
2019-03-24T09:05:28.427Z,28.17
2019-03-24T09:07:57.395Z,29.43
2019-03-24T09:10:26.317Z,28.70
2019-03-24T09:12:56.185Z,28.40
2019-03-24T09:15:25.015Z,29.70
2019-03-24T09:17:54.014Z,27.87
2019-03-24T09:20:23.112Z,31.43
2019-03-24T09:22:52.000Z,28.63
2019-03-24T09:25:21.264Z,30.60
2019-03-24T09:27:50.274Z,26.60
2019-03-24T09:30:35.835Z,25.10
2019-03-24T09:33:04.894Z,32.57
2019-03-24T09:35:34.179Z,26.53
2019-03-24T09:38:03.134Z,29.60
2019-03-24T09:40:35.031Z,29.17
2019-03-24T09:43:04.537Z,29.27
2019-03-24T09:45:33.893Z,27.40
2019-03-24T09:48:02.831Z,26.73
2019-03-24T09:50:32.494Z,26.77
2019-03-24T09:53:01.828Z,27.10
2019-03-24T09:55:30.842Z,26.67
2019-03-24T09:57:59.730Z,28.07
2019-03-24T10:00:28.631Z,28.87
2019-03-24T10:02:57.721Z,25.97
2019-03-24T10:05:26.611Z,25.47
2019-03-24T10:07:55.583Z,31.47
2019-03-24T10:10:24.599Z,30.20
2019-03-24T10:12:53.492Z,30.67
2019-03-24T10:15:22.587Z,31.00
2019-03-24T10:17:51.481Z,27.07
2019-03-24T10:20:20.372Z,30.17
2019-03-24T10:22:50.378Z,24.47
2019-03-24T10:25:19.384Z,28.03
2019-03-24T10:27:48.383Z,33.47
2019-03-24T10:30:17.255Z,29.70
2019-03-24T10:32:46.266Z,26.43
2019-03-24T10:35:15.363Z,27.03
2019-03-24T10:37:45.150Z,26.93
2019-03-24T10:40:14.446Z,29.20
2019-03-24T10:42:43.340Z,30.10
2019-03-24T10:45:13.080Z,30.33
2019-03-24T10:47:43.917Z,23.90
2019-03-24T10:50:14.464Z,27.53
2019-03-24T10:52:43.648Z,25.57
2019-03-24T10:55:12.949Z,27.23
2019-03-24T10:57:41.846Z,30.90
2019-03-24T11:00:13.194Z,29.93
2019-03-24T11:02:42.084Z,24.27
2019-03-24T11:05:11.997Z,26.20
2019-03-24T11:07:41.094Z,31.93
2019-03-24T11:10:11.000Z,26.07
2019-03-24T11:12:39.983Z,18.47
2019-03-24T11:15:10.435Z,30.23
2019-03-24T11:17:39.325Z,28.63
2019-03-24T11:20:09.291Z,27.40
2019-03-24T11:22:38.951Z,27.47
2019-03-24T11:25:10.226Z,31.30
2019-03-24T11:27:39.068Z,21.33
2019-03-24T11:30:13.253Z,23.63
2019-03-24T11:32:42.307Z,26.83
2019-03-24T11:35:12.516Z,25.27
2019-03-24T11:37:41.932Z,26.67
2019-03-24T11:40:12.216Z,30.17
2019-03-24T11:42:41.148Z,20.97
2019-03-24T11:45:12.496Z,28.30
2019-03-24T11:47:41.345Z,23.07
2019-03-24T11:50:10.704Z,28.07
2019-03-24T11:52:39.786Z,21.40
2019-03-24T11:55:09.336Z,29.97
2019-03-24T11:57:39.005Z,22.30
2019-03-24T12:00:13.792Z,24.23
2019-03-24T12:02:42.701Z,19.90
2019-03-24T12:05:12.438Z,22.67
2019-03-24T12:07:41.535Z,21.30
2019-03-24T12:10:13.034Z,24.20
2019-03-24T12:12:41.982Z,31.67
2019-03-24T12:15:11.287Z,27.87
2019-03-24T12:17:40.183Z,22.57
2019-03-24T12:20:10.916Z,30.03
2019-03-24T12:22:40.007Z,26.47
2019-03-24T12:25:09.314Z,30.80
2019-03-24T12:27:38.199Z,16.93
2019-03-24T12:30:13.547Z,27.47
2019-03-24T12:32:42.537Z,30.20
2019-03-24T12:35:11.437Z,25.27
2019-03-24T12:37:40.322Z,27.00
2019-03-24T12:40:10.604Z,28.77
2019-03-24T12:42:39.951Z,22.63
2019-03-24T12:45:09.924Z,22.93
2019-03-24T12:47:38.961Z,21.70
2019-03-24T12:50:10.131Z,22.63
2019-03-24T12:52:39.194Z,26.67
2019-03-24T12:55:08.915Z,28.00
2019-03-24T12:57:38.219Z,29.77
2019-03-24T13:00:12.022Z,25.63
2019-03-24T13:02:40.951Z,28.97
2019-03-24T13:05:10.625Z,27.57
2019-03-24T13:07:39.721Z,24.57
2019-03-24T13:10:09.420Z,27.47
2019-03-24T13:12:38.529Z,22.77
2019-03-24T13:15:08.690Z,18.87
2019-03-24T13:17:37.746Z,24.57
2019-03-24T13:20:19.606Z,29.17
2019-03-24T13:22:38.808Z,29.50
2019-03-24T13:25:09.838Z,24.50
2019-03-24T13:27:38.953Z,23.03
2019-03-24T13:30:08.473Z,19.30
2019-03-24T13:32:37.658Z,14.17
2019-03-24T13:35:08.701Z,12.90
2019-03-24T13:37:37.588Z,16.67
2019-03-24T13:40:06.698Z,18.57
2019-03-24T13:42:35.620Z,25.00
2019-03-24T13:45:07.746Z,27.33
2019-03-24T13:47:39.711Z,24.30
2019-03-24T13:50:09.449Z,27.73
2019-03-24T13:52:38.620Z,25.10
2019-03-24T13:55:08.533Z,29.57
2019-03-24T13:57:37.632Z,23.53
2019-03-24T14:00:07.956Z,24.97
2019-03-24T14:02:37.160Z,25.97
2019-03-24T14:05:06.665Z,27.60
2019-03-24T14:07:37.935Z,31.67
2019-03-24T14:10:08.545Z,17.47
2019-03-24T14:12:37.493Z,26.43
2019-03-24T14:15:07.458Z,36.30
2019-03-24T14:17:36.657Z,25.57
2019-03-24T14:20:09.222Z,23.93
2019-03-24T14:22:38.341Z,33.47
2019-03-24T14:25:08.654Z,29.90
2019-03-24T14:27:37.852Z,26.70
2019-03-24T14:30:08.996Z,31.53
2019-03-24T14:32:38.093Z,31.07
2019-03-24T14:35:07.810Z,27.63
2019-03-24T14:37:37.314Z,28.93
2019-03-24T14:40:06.876Z,29.23
2019-03-24T14:42:35.879Z,29.73
2019-03-24T14:45:06.942Z,25.93
2019-03-24T14:47:36.158Z,27.27
2019-03-24T14:50:06.620Z,21.57
2019-03-24T14:52:35.656Z,28.37
2019-03-24T14:55:05.592Z,19.97
2019-03-24T14:57:34.558Z,30.87
2019-03-24T15:00:05.865Z,29.57
2019-03-24T15:02:34.905Z,29.67
2019-03-24T15:05:05.123Z,26.87
2019-03-24T15:07:34.195Z,28.33
2019-03-24T15:10:04.376Z,28.40
2019-03-24T15:12:33.676Z,24.37
2019-03-24T15:15:02.871Z,25.97
2019-03-24T15:17:32.076Z,24.80
2019-03-24T15:20:01.385Z,30.17
2019-03-24T15:22:30.678Z,28.80
2019-03-24T15:25:01.419Z,27.40
2019-03-24T15:27:30.723Z,28.43
2019-03-24T15:29:59.777Z,29.60
2019-03-24T15:32:33.206Z,32.20
2019-03-24T15:35:02.406Z,29.77
2019-03-24T15:37:32.563Z,24.90
2019-03-24T15:40:05.376Z,27.63
2019-03-24T15:42:34.596Z,28.47
2019-03-24T15:45:04.577Z,28.27
2019-03-24T15:47:33.500Z,19.87
2019-03-24T15:50:02.946Z,25.90
2019-03-24T15:52:33.639Z,26.37
2019-03-24T15:55:05.107Z,29.20
2019-03-24T15:57:34.124Z,25.67
2019-03-24T16:00:06.055Z,26.60
2019-03-24T16:02:36.743Z,24.13
2019-03-24T16:05:07.614Z,25.17
2019-03-24T16:07:37.081Z,28.90
2019-03-24T16:10:08.095Z,22.27
2019-03-24T16:12:39.141Z,26.30
2019-03-24T16:15:09.017Z,26.07
2019-03-24T16:17:38.008Z,29.80
2019-03-24T16:20:07.724Z,24.43
2019-03-24T16:22:36.627Z,28.47
2019-03-24T16:25:07.895Z,30.97
2019-03-24T16:27:36.992Z,29.27
2019-03-24T16:30:08.315Z,27.63
2019-03-24T16:32:38.260Z,25.03
2019-03-24T16:35:07.598Z,31.87
2019-03-24T16:37:36.549Z,26.13
2019-03-24T16:40:08.967Z,31.43
2019-03-24T16:42:38.263Z,30.43
2019-03-24T16:45:07.839Z,30.23
2019-03-24T16:47:36.854Z,33.20
2019-03-24T16:50:07.490Z,24.67
2019-03-24T16:52:36.561Z,27.77
2019-03-24T16:55:07.508Z,28.83
2019-03-24T16:57:36.590Z,33.60
2019-03-24T17:00:08.630Z,28.10
2019-03-24T17:02:37.886Z,32.77
2019-03-24T17:05:08.499Z,24.73
2019-03-24T17:07:37.801Z,33.10
2019-03-24T17:10:07.920Z,33.23
2019-03-24T17:12:37.001Z,29.53
2019-03-24T17:15:08.949Z,28.10
2019-03-24T17:17:39.718Z,27.30
2019-03-24T17:20:10.873Z,31.33
2019-03-24T17:22:40.161Z,27.27
2019-03-24T17:25:11.106Z,32.93
2019-03-24T17:27:40.407Z,32.00
2019-03-24T17:30:12.368Z,29.67
2019-03-24T17:32:41.672Z,26.73
2019-03-24T17:35:11.586Z,33.13
2019-03-24T17:37:41.296Z,26.03
2019-03-24T17:40:12.469Z,25.93
2019-03-24T17:42:41.744Z,30.70
2019-03-24T17:45:11.797Z,31.37
2019-03-24T17:47:40.962Z,32.47
2019-03-24T17:50:12.080Z,27.37
2019-03-24T17:52:41.537Z,28.57
2019-03-24T17:55:10.903Z,26.57
2019-03-24T17:57:40.011Z,25.90
2019-03-24T18:00:12.383Z,30.30
2019-03-24T18:02:41.478Z,27.13
2019-03-24T18:05:11.006Z,23.97
2019-03-24T18:07:40.081Z,32.53
2019-03-24T18:10:11.227Z,32.17
2019-03-24T18:12:40.532Z,26.23
2019-03-24T18:15:11.416Z,25.97
2019-03-24T18:17:40.775Z,26.63
2019-03-24T18:20:10.917Z,26.67
2019-03-24T18:22:39.994Z,24.73
2019-03-24T18:25:09.699Z,26.93
2019-03-24T18:27:38.796Z,23.10
2019-03-24T18:30:11.383Z,30.90
2019-03-24T18:32:40.676Z,24.50
2019-03-24T18:35:11.820Z,25.60
2019-03-24T18:37:40.918Z,23.40
2019-03-24T18:40:11.248Z,27.67
2019-03-24T18:42:40.573Z,18.03
2019-03-24T18:45:11.943Z,22.23
2019-03-24T18:47:41.289Z,23.07
2019-03-24T18:50:11.522Z,22.23
2019-03-24T18:52:40.750Z,24.07
2019-03-24T18:55:10.110Z,23.83
2019-03-24T18:57:39.426Z,18.60
2019-03-24T19:00:10.836Z,23.53
2019-03-24T19:02:39.776Z,26.83
2019-03-24T19:05:09.142Z,24.37
2019-03-24T19:07:39.203Z,21.70
2019-03-24T19:10:09.415Z,19.57
2019-03-24T19:12:38.576Z,21.57
2019-03-24T19:15:10.154Z,27.90
2019-03-24T19:17:41.007Z,27.23
2019-03-24T19:20:11.045Z,26.10
2019-03-24T19:22:40.226Z,23.00
2019-03-24T19:25:12.549Z,21.10
2019-03-24T19:27:43.412Z,20.37
2019-03-24T19:30:16.934Z,25.30
2019-03-24T19:32:46.412Z,24.10
2019-03-24T19:35:15.742Z,25.20
2019-03-24T19:37:46.758Z,24.57
2019-03-24T19:40:26.745Z,22.13
2019-03-24T19:42:56.173Z,21.80
2019-03-24T19:45:27.900Z,24.23
2019-03-24T19:47:57.360Z,22.33
2019-03-24T19:50:26.911Z,19.07
2019-03-24T19:52:56.214Z,22.40
2019-03-24T19:55:26.952Z,22.37
2019-03-24T19:57:56.458Z,20.13
2019-03-24T20:00:25.890Z,19.80
2019-03-24T20:02:55.269Z,18.57
2019-03-24T20:05:26.799Z,21.60
2019-03-24T20:07:55.507Z,22.00
2019-03-24T20:10:25.075Z,19.80
2019-03-24T20:12:54.107Z,22.30
2019-03-24T20:15:23.204Z,19.73
2019-03-24T20:17:52.305Z,20.60
2019-03-24T20:20:21.398Z,19.80
2019-03-24T20:22:56.687Z,21.60
2019-03-24T20:25:23.925Z,18.50
2019-03-24T20:27:53.195Z,22.67
2019-03-24T20:30:24.135Z,21.57
2019-03-24T20:32:53.324Z,21.00
2019-03-24T20:35:22.530Z,20.67
2019-03-24T20:37:51.833Z,19.33
2019-03-24T20:40:21.341Z,22.20
2019-03-24T20:42:50.365Z,18.30
2019-03-24T20:45:19.661Z,19.60
2019-03-24T20:47:49.040Z,21.30
2019-03-24T20:50:18.343Z,20.87
2019-03-24T20:52:47.641Z,23.07
2019-03-24T20:55:16.948Z,19.50
2019-03-24T20:57:45.960Z,22.17
2019-03-24T21:00:15.571Z,23.37
2019-03-24T21:02:44.643Z,20.17
2019-03-24T21:05:15.588Z,22.53
2019-03-24T21:07:46.270Z,24.30
2019-03-24T21:10:15.345Z,22.30
2019-03-24T21:12:44.324Z,22.07
2019-03-24T21:15:13.815Z,18.70
2019-03-24T21:17:42.774Z,23.10
2019-03-24T21:20:12.420Z,20.93
2019-03-24T21:22:43.152Z,25.17
2019-03-24T21:25:14.031Z,21.00
2019-03-24T21:27:43.187Z,18.57
2019-03-24T21:30:14.335Z,21.40
2019-03-24T21:32:43.432Z,21.70
2019-03-24T21:35:14.165Z,19.83
2019-03-24T21:37:43.264Z,17.80
2019-03-24T21:40:12.770Z,21.97
2019-03-24T21:42:41.866Z,15.67
2019-03-24T21:45:13.422Z,16.40
2019-03-24T21:47:42.721Z,16.40
2019-03-24T21:50:13.459Z,15.60
2019-03-24T21:52:42.760Z,20.60
2019-03-24T21:55:12.676Z,18.70
2019-03-24T21:57:41.774Z,17.43
2019-03-24T22:00:11.692Z,15.20
2019-03-24T22:02:40.949Z,14.37
2019-03-24T22:05:10.290Z,14.33
2019-03-24T22:07:39.212Z,14.13
2019-03-24T22:10:08.688Z,19.93
2019-03-24T22:12:37.455Z,18.87
2019-03-24T22:15:09.340Z,17.83
2019-03-24T22:17:38.231Z,17.03
2019-03-24T22:20:09.251Z,16.63
2019-03-24T22:22:38.270Z,15.40
2019-03-24T22:25:08.593Z,14.20
2019-03-24T22:27:37.442Z,15.83
2019-03-24T22:30:08.221Z,14.17
2019-03-24T22:32:37.031Z,22.33
2019-03-24T22:35:06.936Z,16.77
2019-03-24T22:37:35.780Z,15.23
2019-03-24T22:40:06.911Z,17.17
2019-03-24T22:42:35.796Z,19.47
2019-03-24T22:45:05.631Z,16.37
2019-03-24T22:47:34.527Z,13.93
2019-03-24T22:50:04.467Z,16.17
2019-03-24T22:52:33.575Z,17.43
2019-03-24T22:55:03.080Z,15.97
2019-03-24T22:57:32.733Z,16.33
2019-03-24T23:00:01.893Z,13.50
2019-03-24T23:02:30.761Z,15.57
2019-03-24T23:04:59.752Z,14.77
2019-03-24T23:07:28.779Z,15.20
2019-03-24T23:09:57.866Z,16.17
2019-03-24T23:12:26.963Z,15.70
2019-03-24T23:14:56.858Z,15.70
2019-03-24T23:17:25.770Z,12.87
2019-03-24T23:19:54.488Z,17.97
2019-03-24T23:22:23.423Z,17.93
2019-03-24T23:24:52.317Z,14.17
2019-03-24T23:27:21.209Z,14.77
2019-03-24T23:29:50.232Z,16.47
2019-03-24T23:32:19.124Z,19.47
2019-03-24T23:34:47.947Z,18.23
2019-03-24T23:37:16.904Z,13.03
2019-03-24T23:39:45.796Z,13.83
2019-03-24T23:42:14.753Z,16.10
2019-03-24T23:44:43.658Z,21.87
2019-03-24T23:47:12.515Z,18.70
2019-03-24T23:49:41.571Z,17.97
2019-03-24T23:52:10.436Z,19.30
2019-03-24T23:54:39.356Z,19.13
2019-03-24T23:57:08.247Z,20.07
2019-03-24T23:59:37.140Z,20.97
